Time;durP1;ratioP1;P1;durP2;ratioP2;P2;SDS_P1;SDS_P2;PMS_P1;PMS_P2;Temp;Humidity;BMP_temperature;BMP_pressure;BME280_temperature;BME280_humidity;BME280_pressure;Samples;Min_cycle;Max_cycle;Signal;HPM_P1;HPM_P2
2022/05/14 00:02:11;;;;;;;6.03;1.53;;;8.40;99.90;9.30;94569.00;;;;7391293;19;20165;-79
2022/05/14 00:04:54;;;;;;;2.93;1.20;;;8.40;99.90;9.30;94582.00;;;;7393215;19;20618;-79
2022/05/14 00:07:32;;;;;;;7.73;1.40;;;8.40;87.40;9.30;94612.00;;;;7391557;19;20147;-79
2022/05/14 00:10:07;;;;;;;4.97;1.60;;;8.40;99.90;9.20;94613.00;;;;7392432;19;20591;-78
2022/05/14 00:15:26;;;;;;;3.80;1.57;;;8.30;99.90;9.20;94575.00;;;;7393466;19;20612;-78
2022/05/14 00:17:54;;;;;;;3.37;1.40;;;8.20;99.90;9.20;94599.00;;;;7392843;19;20141;-79
2022/05/14 00:20:23;;;;;;;5.20;1.20;;;8.20;99.90;9.30;94604.00;;;;7392387;19;20149;-79
2022/05/14 00:22:58;;;;;;;5.30;1.63;;;8.20;99.90;9.30;94584.00;;;;7393509;19;20125;-79
2022/05/14 00:25:26;;;;;;;3.67;1.20;;;8.10;99.90;9.10;94574.00;;;;7394227;19;20129;-79
2022/05/14 00:27:54;;;;;;;4.63;1.53;;;8.10;99.90;9.10;94588.00;;;;7390969;19;20137;-79
2022/05/14 00:30:31;;;;;;;1.37;1.00;;;8.10;99.90;9.00;94596.00;;;;7392942;19;20125;-79
2022/05/14 00:32:58;;;;;;;8.10;1.67;;;8.10;99.90;9.20;94570.00;;;;7391327;19;20168;-79
2022/05/14 00:35:26;;;;;;;2.47;1.20;;;8.10;99.90;9.10;94564.00;;;;7392649;19;20132;-79
2022/05/14 00:38:01;;;;;;;5.23;1.20;;;8.10;99.90;9.20;94574.00;;;;7386653;19;20132;-79
2022/05/14 00:40:34;;;;;;;4.03;1.50;;;8.10;99.90;9.20;94596.00;;;;7387798;19;20124;-80
2022/05/14 00:43:10;;;;;;;5.17;1.43;;;8.10;99.90;9.10;94587.00;;;;7391726;19;20456;-79
2022/05/14 00:45:44;;;;;;;4.87;1.10;;;8.10;99.90;9.00;94515.00;;;;7391327;19;20161;-79
2022/05/14 00:48:18;;;;;;;5.10;1.20;;;8.10;99.90;9.00;94538.00;;;;7390144;19;20140;-79
2022/05/14 00:50:54;;;;;;;11.40;1.40;;;8.10;99.90;9.10;94572.00;;;;7393316;19;20148;-78
2022/05/14 00:53:37;;;;;;;3.97;1.60;;;8.10;99.90;9.00;94593.00;;;;7391568;19;20144;-78
2022/05/14 00:56:12;;;;;;;5.03;1.37;;;8.10;99.90;9.30;94584.00;;;;7391143;19;20128;-79
2022/05/14 00:59:02;;;;;;;4.33;1.20;;;8.20;99.90;9.20;94550.00;;;;7391175;19;20141;-79
2022/05/14 01:01:38;;;;;;;3.07;1.33;;;8.10;99.90;9.00;94574.00;;;;7390794;19;20176;-77
2022/05/14 01:04:19;;;;;;;8.07;1.40;;;8.10;99.90;9.10;94580.00;;;;7390733;19;20204;-78
2022/05/14 01:07:03;;;;;;;4.20;1.03;;;8.10;99.90;9.10;94586.00;;;;7391045;19;20562;-77
2022/05/14 01:09:40;;;;;;;1.63;1.10;;;8.10;99.90;9.10;94565.00;;;;7391303;19;20128;-78
2022/05/14 01:12:08;;;;;;;6.77;1.40;;;8.10;99.90;9.00;94565.00;;;;7393305;19;20155;-77
2022/05/14 01:14:36;;;;;;;4.33;1.30;;;8.10;99.90;9.10;94543.00;;;;7392528;19;20201;-77
2022/05/14 01:17:10;;;;;;;2.80;1.20;;;8.10;99.90;8.90;94563.00;;;;7389904;19;20212;-78
2022/05/14 01:19:38;;;;;;;1.83;1.30;;;8.00;99.90;8.90;94561.00;;;;7392377;19;20196;-77
2022/05/14 01:22:41;;;;;;;5.67;1.60;;;8.00;99.90;8.90;94575.00;;;;7391442;19;20137;-78
2022/05/14 01:28:29;;;;;;;3.93;1.43;;;8.00;99.90;9.00;94558.00;;;;7389952;19;20644;-77
2022/05/14 01:31:03;;;;;;;3.03;1.10;;;8.00;99.90;8.90;94578.00;;;;7390050;19;20144;-78
2022/05/14 01:33:32;;;;;;;2.07;1.30;;;8.00;99.90;8.90;94576.00;;;;7390672;19;20137;-78
2022/05/14 01:35:59;;;;;;;1.60;0.97;;;8.00;99.90;8.90;94576.00;;;;7390233;19;20812;-78
2022/05/14 01:38:33;;;;;;;3.33;1.10;;;7.90;99.90;8.80;94582.00;;;;7391679;19;20129;-78
2022/05/14 01:41:01;;;;;;;3.10;1.30;;;7.90;99.90;8.70;94545.00;;;;7389356;19;20135;-78
2022/05/14 01:43:29;;;;;;;3.40;1.70;;;7.90;1.00;8.70;94538.00;;;;7391045;19;20283;-78
2022/05/14 01:46:03;;;;;;;4.37;1.30;;;7.80;1.00;8.70;94521.00;;;;7389731;19;20140;-78
2022/05/14 01:48:31;;;;;;;4.50;1.47;;;7.80;1.00;8.70;94533.00;;;;7388414;19;20133;-78
2022/05/14 01:50:59;;;;;;;4.27;1.50;;;7.70;1.00;8.60;94548.00;;;;7389625;19;20133;-77
2022/05/14 01:53:32;;;;;;;1.30;1.03;;;7.70;99.90;8.70;94537.00;;;;7390479;19;20145;-78
2022/05/14 01:56:00;;;;;;;3.80;1.30;;;7.70;99.90;8.60;94560.00;;;;7391396;19;20153;-78
2022/05/14 01:58:36;;;;;;;1.73;1.20;;;7.70;1.00;8.70;94547.00;;;;7389526;19;20149;-78
2022/05/14 02:01:26;;;;;;;3.20;1.33;;;7.70;99.90;8.70;94570.00;;;;7388982;19;20141;-78
2022/05/14 02:04:08;;;;;;;5.00;1.37;;;7.70;99.90;8.70;94548.00;;;;7389894;19;20145;-77
2022/05/14 02:06:43;;;;;;;2.73;1.30;;;7.70;99.90;8.70;94568.00;;;;7389261;19;20129;-78
2022/05/14 02:09:15;;;;;;;6.17;1.40;;;7.70;99.90;8.70;94564.00;;;;7389810;19;20150;-78
2022/05/14 02:11:49;;;;;;;5.27;1.30;;;7.70;99.90;8.70;94544.00;;;;7390130;19;20131;-78
2022/05/14 02:14:16;;;;;;;3.97;1.57;;;7.70;99.90;8.70;94570.00;;;;7389150;19;20133;-78
2022/05/14 02:16:43;;;;;;;4.53;1.37;;;7.80;99.90;8.60;94532.00;;;;7389058;19;20612;-78
2022/05/14 02:19:17;;;;;;;2.50;1.20;;;7.80;99.90;8.70;94536.00;;;;7389431;19;20201;-77
2022/05/14 02:21:45;;;;;;;4.77;1.40;;;7.80;99.90;8.60;94552.00;;;;7391303;19;20192;-78
2022/05/14 02:24:12;;;;;;;1.60;1.07;;;7.80;99.90;8.60;94564.00;;;;7389169;19;20228;-78
2022/05/14 02:26:53;;;;;;;5.67;1.20;;;7.80;99.90;8.60;94567.00;;;;7388651;19;20129;-77
2022/05/14 02:29:20;;;;;;;3.17;1.20;;;7.80;99.90;9.00;94551.00;;;;7390425;19;20147;-77
2022/05/14 02:31:54;;;;;;;2.87;1.20;;;7.80;99.90;8.90;94534.00;;;;7396861;19;20137;-77
2022/05/14 02:34:21;;;;;;;2.67;1.00;;;7.90;99.90;8.70;94554.00;;;;7394699;19;20164;-78
2022/05/14 02:36:48;;;;;;;2.47;1.20;;;7.90;99.90;8.70;94558.00;;;;7395795;19;20604;-78
2022/05/14 02:39:22;;;;;;;1.97;1.20;;;7.90;99.90;8.60;94569.00;;;;7396090;19;20173;-78
2022/05/14 02:41:49;;;;;;;2.93;1.13;;;7.90;99.90;8.60;94520.00;;;;7396206;19;20132;-78
2022/05/14 02:44:16;;;;;;;3.53;1.10;;;7.80;99.90;8.70;94560.00;;;;7395771;19;20149;-78
2022/05/14 02:46:50;;;;;;;4.00;1.17;;;7.90;99.90;8.70;94537.00;;;;7395145;19;20125;-77
2022/05/14 02:49:17;;;;;;;1.83;1.00;;;7.90;99.90;8.80;94564.00;;;;7396706;19;20129;-78
2022/05/14 02:51:44;;;;;;;3.17;1.10;;;7.90;99.90;8.90;94529.00;;;;7395643;19;20136;-79
2022/05/14 02:54:18;;;;;;;4.57;1.20;;;7.90;99.90;9.00;94550.00;;;;7396120;19;20129;-78
2022/05/14 02:56:45;;;;;;;4.57;1.30;;;7.90;20.00;9.10;94537.00;;;;7396303;19;20121;-78
2022/05/14 02:59:12;;;;;;;4.83;1.37;;;8.10;15.50;8.90;94526.00;;;;7394806;19;20141;-78
2022/05/14 03:01:52;;;;;;;5.53;1.63;;;8.00;37.50;8.70;94541.00;;;;7394728;19;20485;-76
2022/05/14 03:04:29;;;;;;;7.13;1.47;;;7.90;99.90;8.50;94555.00;;;;7395733;19;20148;-78
2022/05/14 03:07:06;;;;;;;4.53;1.40;;;7.80;99.90;8.20;94547.00;;;;7394630;19;20137;-78
2022/05/14 03:09:35;;;;;;;4.33;1.30;;;7.60;1.00;8.30;94564.00;;;;7395225;19;20148;-78
2022/05/14 03:12:10;;;;;;;2.37;1.27;;;7.50;99.90;8.20;94565.00;;;;7396366;19;20133;-79
2022/05/14 03:14:44;;;;;;;2.10;1.10;;;7.50;1.00;8.60;94538.00;;;;7394838;19;20162;-78
2022/05/14 03:17:13;;;;;;;5.63;1.50;;;7.50;1.00;8.40;94543.00;;;;7395083;19;20166;-78
2022/05/14 03:19:40;;;;;;;1.70;1.20;;;7.50;1.00;8.50;94555.00;;;;7396119;19;20463;-79
2022/05/14 03:22:14;;;;;;;3.70;1.30;;;7.50;1.00;8.40;94545.00;;;;7395642;19;20129;-77
2022/05/14 03:24:41;;;;;;;3.07;1.30;;;7.50;1.00;8.40;94545.00;;;;7395829;19;20140;-77
2022/05/14 03:27:10;;;;;;;3.20;1.30;;;7.50;1.00;8.30;94544.00;;;;7394414;19;20160;-76
2022/05/14 03:29:44;;;;;;;2.50;1.27;;;7.50;1.00;8.50;94538.00;;;;7395181;19;20131;-77
2022/05/14 03:32:11;;;;;;;4.60;1.40;;;7.50;1.00;8.40;94533.00;;;;7394136;19;20672;-77
2022/05/14 03:34:38;;;;;;;4.50;1.50;;;7.60;1.00;8.50;94549.00;;;;7392221;19;20161;-78
2022/05/14 03:37:13;;;;;;;11.40;1.60;;;7.60;1.00;8.30;94532.00;;;;7391832;19;20141;-78
2022/05/14 03:39:40;;;;;;;5.43;1.53;;;7.60;1.00;8.40;94528.00;;;;7394738;19;20501;-78
2022/05/14 03:42:07;;;;;;;2.97;1.47;;;7.60;1.00;8.40;94528.00;;;;7393730;19;20144;-78
2022/05/14 03:44:41;;;;;;;4.17;1.30;;;7.60;99.90;8.30;94531.00;;;;7395673;19;20129;-77
2022/05/14 03:47:08;;;;;;;4.17;1.43;;;7.60;99.90;8.50;94533.00;;;;7394284;19;20599;-77
2022/05/14 03:49:35;;;;;;;5.00;1.30;;;7.60;99.90;8.40;94530.00;;;;7394339;19;20121;-78
2022/05/14 03:52:10;;;;;;;3.70;1.43;;;7.60;99.90;8.40;94528.00;;;;7394282;19;20141;-77
2022/05/14 03:54:38;;;;;;;4.97;1.23;;;7.50;99.90;8.30;94538.00;;;;7393792;19;20593;-78
2022/05/14 03:57:13;;;;;;;3.17;1.37;;;7.50;99.90;8.30;94529.00;;;;7395768;19;20145;-77
2022/05/14 03:59:47;;;;;;;2.43;1.00;;;7.50;99.90;8.30;94536.00;;;;7394435;19;20158;-78
2022/05/14 04:02:21;;;;;;;4.20;1.20;;;7.50;1.00;8.40;94555.00;;;;7393071;19;20168;-77
2022/05/14 04:05:02;;;;;;;5.43;1.30;;;7.60;1.00;8.60;94518.00;;;;7393355;19;20149;-77
2022/05/14 04:07:30;;;;;;;2.87;1.10;;;7.70;99.90;8.50;94518.00;;;;7392181;19;20825;-77
2022/05/14 04:10:05;;;;;;;3.00;1.10;;;7.70;99.90;8.60;94531.00;;;;7392611;19;20136;-77
2022/05/14 04:12:33;;;;;;;5.73;1.47;;;7.70;99.90;8.70;94548.00;;;;7393503;19;20236;-77
2022/05/14 04:15:00;;;;;;;2.40;0.93;;;7.70;99.90;8.60;94560.00;;;;7392956;19;20143;-76
2022/05/14 04:17:34;;;;;;;6.20;1.23;;;7.70;99.90;8.70;94538.00;;;;7392882;19;20136;-77
2022/05/14 04:20:01;;;;;;;7.20;1.40;;;7.80;99.90;8.90;94561.00;;;;7392590;19;20173;-76
2022/05/14 04:22:30;;;;;;;3.70;1.30;;;7.80;99.90;9.00;94556.00;;;;7392984;19;20141;-78
2022/05/14 04:25:05;;;;;;;1.77;1.10;;;7.90;99.90;9.10;94524.00;;;;7392978;19;20164;-78
2022/05/14 04:27:32;;;;;;;3.27;1.10;;;8.00;99.90;9.20;94531.00;;;;7391932;19;20613;-79
2022/05/14 04:29:59;;;;;;;3.47;1.30;;;8.10;99.90;9.40;94526.00;;;;7392856;19;20182;-79
2022/05/14 04:32:33;;;;;;;7.80;1.20;;;8.20;99.90;9.50;94542.00;;;;7391783;19;20133;-79
2022/05/14 04:35:00;;;;;;;3.40;1.53;;;8.30;99.90;9.50;94532.00;;;;7390704;19;20483;-78
2022/05/14 04:37:27;;;;;;;6.33;1.13;;;8.40;99.90;9.50;94559.00;;;;7391419;19;20149;-78
2022/05/14 04:40:01;;;;;;;3.30;1.03;;;8.40;99.90;9.70;94545.00;;;;7391977;19;20151;-78
2022/05/14 04:42:28;;;;;;;3.03;1.10;;;8.50;99.90;10.00;94555.00;;;;7393217;19;20156;-78
2022/05/14 04:44:56;;;;;;;1.60;1.10;;;8.70;51.50;10.00;94516.00;;;;7392233;19;20137;-78
2022/05/14 04:47:30;;;;;;;3.50;1.20;;;8.80;1.00;10.20;94514.00;;;;7391431;19;20614;-78
2022/05/14 04:49:57;;;;;;;2.73;1.20;;;9.00;1.00;10.40;94534.00;;;;7393627;19;20117;-77
2022/05/14 04:52:24;;;;;;;4.40;1.20;;;9.20;1.00;10.50;94561.00;;;;7390058;19;20152;-77
2022/05/14 04:54:58;;;;;;;7.20;1.30;;;9.30;1.00;10.70;94513.00;;;;7391540;19;20152;-77
2022/05/14 04:57:25;;;;;;;1.40;0.90;;;9.40;1.00;11.00;94545.00;;;;7391446;19;20157;-78
2022/05/14 04:59:53;;;;;;;2.75;1.20;;;9.50;1.00;11.00;94537.00;;;;7392432;19;20141;-77
2022/05/14 05:05:29;;;;;;;2.78;0.90;;;9.80;1.00;11.30;94559.00;;;;7391721;19;20137;-78
2022/05/14 05:08:02;;;;;;;2.97;1.10;;;10.00;99.90;11.40;94555.00;;;;7391604;19;20132;-77
2022/05/14 05:10:29;;;;;;;2.00;1.20;;;10.10;99.90;11.60;94564.00;;;;7390475;19;20955;-78
2022/05/14 05:12:57;;;;;;;2.40;1.20;;;10.20;99.90;11.90;94536.00;;;;7391365;19;20510;-77
2022/05/14 05:15:31;;;;;;;4.13;0.95;;;10.40;99.90;12.10;94537.00;;;;7393493;19;20621;-76
2022/05/14 05:17:58;;;;;;;3.95;1.30;;;10.60;99.90;12.20;94550.00;;;;7387502;19;20872;-76
2022/05/14 05:20:25;;;;;;;1.98;1.10;;;10.80;99.90;12.30;94544.00;;;;7393391;19;20160;-77
2022/05/14 05:22:59;;;;;;;5.55;1.30;;;11.00;99.90;12.50;94571.00;;;;7391338;19;20591;-76
2022/05/14 05:25:27;;;;;;;3.80;1.20;;;11.20;99.90;12.70;94569.00;;;;7392228;19;20148;-77
2022/05/14 05:27:54;;;;;;;1.73;1.05;;;11.30;99.90;12.90;94541.00;;;;7394716;19;20591;-77
2022/05/14 05:30:31;;;;;;;1.83;1.30;;;11.50;28.10;13.20;94548.00;;;;7397121;19;20151;-76
2022/05/14 05:32:58;;;;;;;4.00;1.20;;;11.70;1.00;13.40;94539.00;;;;7392830;19;20148;-76
2022/05/14 05:35:26;;;;;;;3.05;1.17;;;11.90;1.00;13.70;94564.00;;;;7394340;19;20141;-77
2022/05/14 05:38:01;;;;;;;3.28;1.45;;;12.10;1.00;14.10;94539.00;;;;7392813;19;20512;-77
2022/05/14 05:40:28;;;;;;;4.43;1.02;;;12.20;1.00;14.20;94556.00;;;;7396193;19;20212;-77
2022/05/14 05:42:55;;;;;;;2.13;1.08;;;12.40;1.00;14.20;94570.00;;;;7393029;19;20565;-76
2022/05/14 05:45:30;;;;;;;3.60;1.05;;;12.50;1.00;14.20;94538.00;;;;7394326;19;20178;-76
2022/05/14 05:47:58;;;;;;;3.75;1.00;;;12.70;1.00;14.30;94541.00;;;;7394411;19;20603;-76
2022/05/14 05:50:26;;;;;;;4.72;1.08;;;12.80;1.00;14.40;94552.00;;;;7396493;19;20145;-77
2022/05/14 05:53:00;;;;;;;2.92;1.15;;;12.90;1.00;14.40;94546.00;;;;7393051;19;20515;-77
2022/05/14 05:58:20;;;;;;;2.53;1.02;;;13.20;1.00;15.00;94544.00;;;;7395882;19;20829;-76
2022/05/14 06:00:48;;;;;;;2.60;0.93;;;13.30;1.00;15.20;94571.00;;;;7395346;19;21472;-77
2022/05/14 06:03:16;;;;;;;4.57;1.58;;;13.50;1.00;15.50;94561.00;;;;7392053;19;20176;-77
2022/05/14 06:05:49;;;;;;;3.40;0.82;;;13.60;1.00;15.60;94556.00;;;;7401431;19;20151;-77
2022/05/14 06:08:19;;;;;;;3.33;0.88;;;13.70;1.00;15.70;94557.00;;;;7401121;19;20557;-75
2022/05/14 06:10:46;;;;;;;2.30;0.95;;;13.70;1.00;15.80;94550.00;;;;7402002;19;20145;-76
2022/05/14 06:13:20;;;;;;;2.35;0.90;;;13.80;1.00;15.70;94559.00;;;;7399697;19;20156;-76
2022/05/14 06:15:47;;;;;;;3.80;1.05;;;13.90;1.00;15.20;94555.00;;;;7401010;19;20156;-76
2022/05/14 06:18:15;;;;;;;4.47;0.95;;;13.90;1.00;15.50;94555.00;;;;7401774;19;20230;-76
2022/05/14 06:20:48;;;;;;;1.65;0.82;;;14.10;1.00;15.80;94545.00;;;;7403062;19;20156;-76
2022/05/14 06:23:16;;;;;;;1.60;0.80;;;14.20;1.00;16.00;94550.00;;;;7398764;19;20157;-75
2022/05/14 06:25:43;;;;;;;4.20;1.13;;;14.40;1.00;16.30;94576.00;;;;7397055;19;20141;-75
2022/05/14 06:28:17;;;;;;;4.97;1.38;;;14.50;1.00;16.50;94561.00;;;;7400463;19;20174;-76
2022/05/14 06:30:45;;;;;;;3.58;1.23;;;14.60;1.00;16.30;94573.00;;;;7401832;19;20156;-76
2022/05/14 06:33:14;;;;;;;6.68;1.23;;;14.60;1.00;16.30;94574.00;;;;7397151;19;20523;-76
2022/05/14 06:35:49;;;;;;;3.75;0.82;;;14.70;1.00;16.50;94546.00;;;;7400481;19;20148;-76
2022/05/14 06:38:16;;;;;;;2.25;0.90;;;14.70;1.00;16.50;94566.00;;;;7399307;19;20140;-77
2022/05/14 06:40:43;;;;;;;3.53;1.10;;;14.90;1.00;16.90;94557.00;;;;7401460;19;20151;-77
2022/05/14 06:43:17;;;;;;;4.13;1.30;;;15.20;1.00;17.00;94562.00;;;;7401477;19;20121;-76
2022/05/14 06:45:45;;;;;;;5.07;1.10;;;15.20;1.00;17.10;94571.00;;;;7398640;19;20619;-76
2022/05/14 06:48:13;;;;;;;3.08;1.30;;;15.40;1.00;17.50;94555.00;;;;7400532;19;20156;-77
2022/05/14 06:50:50;;;;;;;8.32;1.10;;;15.60;1.00;17.60;94573.00;;;;7399739;19;20228;-76
2022/05/14 06:53:39;;;;;;;4.75;1.17;;;15.70;1.00;17.60;94568.00;;;;7404306;19;20182;-78
2022/05/14 06:56:15;;;;;;;1.23;0.80;;;15.80;1.00;18.20;94578.00;;;;7399928;19;20144;-76
2022/05/14 06:58:48;;;;;;;3.13;1.10;;;16.00;1.00;18.20;94587.00;;;;7399833;19;20286;-79
2022/05/14 07:02:18;;;;;;;1.80;0.90;;;16.10;1.00;18.80;94543.00;;;;7398361;19;20208;-77
2022/05/14 07:07:50;;;;;;;3.75;1.20;;;16.90;1.00;20.30;94582.00;;;;7396913;19;20502;-78
2022/05/14 07:11:05;;;;;;;3.10;1.15;;;16.80;1.00;19.90;94584.00;;;;7396923;19;20226;-78
2022/05/14 07:14:09;;;;;;;3.92;1.45;;;16.80;99.90;20.20;94574.00;;;;7394959;19;20132;-77
2022/05/14 07:17:42;;;;;;;;;;;;;;;;;;;;;
2022/05/14 07:20:18;;;;;;;3.97;1.10;;;17.00;1.00;19.70;94566.00;;;;7395418;19;20519;-77
2022/05/14 07:24:34;;;;;;;;;;;;;;;;;;;;;
2022/05/14 07:27:11;;;;;;;2.80;1.30;;;16.80;99.90;18.70;94603.00;;;;7394414;19;20136;-76
2022/05/14 07:29:45;;;;;;;2.00;1.10;;;16.70;99.90;18.30;94590.00;;;;7394049;19;20164;-77
2022/05/14 07:32:59;;;;;;;4.63;1.10;;;16.60;99.90;18.50;94569.00;;;;7399280;19;20220;-78
2022/05/14 07:35:37;;;;;;;2.67;1.23;;;16.70;1.00;18.60;94614.00;;;;7395055;19;20142;-78
2022/05/14 07:38:10;;;;;;;2.65;1.20;;;16.70;1.00;18.60;94598.00;;;;7397046;19;20145;-77
2022/05/14 07:40:39;;;;;;;4.18;1.38;;;16.80;99.90;18.50;94598.00;;;;7399932;19;20180;-77
2022/05/14 07:43:26;;;;;;;3.08;1.33;;;16.80;99.90;18.80;94553.00;;;;7401085;19;20147;-78
2022/05/14 07:46:07;;;;;;;3.17;1.20;;;16.80;99.90;19.10;94593.00;;;;7399075;19;20152;-77
2022/05/14 07:48:39;;;;;;;4.07;1.30;;;16.90;99.90;19.20;94564.00;;;;7398033;19;20156;-78
2022/05/14 07:51:13;;;;;;;7.70;1.60;;;17.00;99.90;19.20;94571.00;;;;7400020;19;20137;-78
2022/05/14 07:53:41;;;;;;;7.82;1.27;;;17.00;99.90;19.20;94574.00;;;;7398147;19;20149;-78
2022/05/14 07:56:09;;;;;;;6.22;1.45;;;17.20;99.90;19.40;94590.00;;;;7398936;19;20141;-78
2022/05/14 07:58:44;;;;;;;6.72;1.52;;;17.30;99.90;19.90;94602.00;;;;7398050;19;20196;-79
2022/05/14 08:01:12;;;;;;;3.60;1.25;;;17.70;99.90;20.20;94572.00;;;;7396427;19;20492;-80
2022/05/14 08:03:39;;;;;;;6.07;1.20;;;18.10;99.90;20.60;94593.00;;;;7396792;19;20623;-78
2022/05/14 08:06:15;;;;;;;5.68;1.42;;;18.30;99.90;20.50;94593.00;;;;7398132;19;20487;-78
2022/05/14 08:08:44;;;;;;;3.30;1.27;;;18.40;99.90;20.90;94589.00;;;;7396438;19;20169;-78
2022/05/14 08:11:11;;;;;;;3.83;1.02;;;18.40;99.90;21.20;94588.00;;;;7393880;19;20215;-78
2022/05/14 08:13:45;;;;;;;2.22;0.93;;;18.60;99.90;21.90;94580.00;;;;7396655;19;20497;-78
2022/05/14 08:16:43;;;;;;;8.75;1.40;;;18.80;99.90;22.00;94587.00;;;;7393386;19;20216;-77
2022/05/14 08:19:45;;;;;;;3.63;1.55;;;19.10;99.90;21.90;94594.00;;;;7393830;19;20182;-78
2022/05/14 08:25:34;;;;;;;3.58;1.30;;;19.10;99.90;21.50;94564.00;;;;7395702;19;20918;-79
2022/05/14 08:28:08;;;;;;;5.55;1.10;;;19.20;99.90;22.10;94572.00;;;;7393360;19;20155;-77
2022/05/14 08:30:36;;;;;;;3.38;1.23;;;19.30;99.90;21.80;94591.00;;;;7396989;19;20148;-75
2022/05/14 08:33:07;;;;;;;4.05;1.30;;;19.60;99.90;22.30;94589.00;;;;7393868;19;20231;-76
2022/05/14 08:35:56;;;;;;;2.80;1.08;;;19.80;99.90;22.20;94565.00;;;;7394449;19;20615;-78
2022/05/14 08:38:34;;;;;;;3.10;1.30;;;19.90;99.90;22.00;94567.00;;;;7393110;19;20255;-76
2022/05/14 08:41:15;;;;;;;3.95;1.25;;;19.60;99.90;21.20;94587.00;;;;7394450;19;20175;-78
2022/05/14 08:44:32;;;;;;;5.13;1.40;;;19.50;99.90;21.60;94559.00;;;;7395157;19;20181;-78
2022/05/14 08:47:48;;;;;;;2.58;1.50;;;19.60;99.90;21.60;94587.00;;;;7398458;19;20607;-77
2022/05/14 08:50:16;;;;;;;3.85;1.30;;;19.50;99.90;22.40;94584.00;;;;7394099;19;20598;-78
2022/05/14 08:53:11;;;;;;;5.20;1.33;;;19.80;99.90;22.40;94583.00;;;;7395000;19;20678;-78
2022/05/14 08:56:14;;;;;;;5.05;1.30;;;19.80;99.90;22.40;94584.00;;;;7394707;19;20133;-76
2022/05/14 08:59:45;;;;;;;5.68;1.42;;;19.90;99.90;22.10;94581.00;;;;7394777;19;20145;-77
2022/05/14 09:02:31;;;;;;;4.55;1.38;;;20.10;99.90;22.10;94580.00;;;;7394559;19;20896;-79
2022/05/14 09:05:21;;;;;;;5.30;1.30;;;19.80;99.90;21.90;94583.00;;;;7394233;19;20625;-78
2022/05/14 09:07:50;;;;;;;4.38;1.20;;;20.00;99.90;22.20;94576.00;;;;7397670;19;20228;-80
2022/05/14 09:10:38;;;;;;;4.60;1.35;;;20.20;99.90;22.20;94581.00;;;;7394738;19;20475;-78
2022/05/14 09:13:14;;;;;;;3.63;1.38;;;20.30;99.90;22.30;94590.00;;;;7395965;19;20477;-78
2022/05/14 09:15:57;;;;;;;2.97;1.60;;;20.20;99.90;22.70;94581.00;;;;7397664;19;20556;-81
2022/05/14 09:18:41;;;;;;;4.13;1.88;;;20.30;99.90;22.70;94579.00;;;;7398907;19;20157;-77
2022/05/14 09:21:30;;;;;;;3.30;1.40;;;20.00;99.90;22.80;94582.00;;;;7396095;19;20141;-77
2022/05/14 09:24:25;;;;;;;4.50;1.40;;;20.20;99.90;22.90;94558.00;;;;7396443;19;20153;-80
2022/05/14 09:27:19;;;;;;;3.65;1.20;;;20.70;99.90;23.70;94578.00;;;;7397430;19;20152;-81
2022/05/14 09:29:52;;;;;;;4.10;1.20;;;20.90;99.90;23.50;94559.00;;;;7398115;19;20161;-78
2022/05/14 09:32:40;;;;;;;3.28;1.20;;;21.00;99.90;23.30;94581.00;;;;7395914;19;20633;-80
2022/05/14 09:35:17;;;;;;;2.08;1.27;;;21.10;99.90;23.50;94581.00;;;;7397260;19;20148;-79
2022/05/14 09:37:57;;;;;;;4.43;1.67;;;21.20;99.90;23.20;94585.00;;;;7394679;19;20602;-80
2022/05/14 09:40:29;;;;;;;3.13;1.20;;;21.20;99.90;23.20;94580.00;;;;7406065;19;20570;-80
2022/05/14 09:43:35;;;;;;;5.45;1.30;;;21.10;99.90;23.20;94537.00;;;;7406177;19;20200;-82
2022/05/14 09:46:32;;;;;;;3.25;1.40;;;21.30;99.90;24.30;94489.00;;;;7406471;19;20549;-81
2022/05/14 09:49:16;;;;;;;2.92;1.20;;;21.30;99.90;24.00;94542.00;;;;7401405;19;20156;-79
2022/05/14 09:52:06;;;;;;;3.67;1.30;;;21.20;99.90;23.40;94574.00;;;;7400938;19;20579;-82
2022/05/14 09:54:46;;;;;;;2.42;1.30;;;21.10;99.90;23.60;94540.00;;;;7402828;19;20602;-81
2022/05/14 09:58:00;;;;;;;1.27;1.10;;;21.60;99.90;24.80;94560.00;;;;7401578;19;20508;-80
2022/05/14 10:00:58;;;;;;;1.33;1.10;;;22.20;99.90;24.90;94553.00;;;;7405012;19;20149;-82
2022/05/14 10:03:58;;;;;;;3.95;1.30;;;22.70;99.90;24.90;94550.00;;;;7401574;19;20164;-79
2022/05/14 10:07:04;;;;;;;3.90;1.35;;;23.00;99.90;25.80;94552.00;;;;7404323;19;20583;-82
2022/05/14 10:09:54;;;;;;;5.10;1.30;;;23.50;99.90;26.30;94566.00;;;;7400495;19;20183;-82
2022/05/14 10:12:43;;;;;;;3.55;1.50;;;24.10;99.90;26.70;94568.00;;;;7403202;19;20160;-81
2022/05/14 10:15:58;;;;;;;3.70;1.35;;;24.70;99.90;26.80;94569.00;;;;7403374;19;20160;-81
2022/05/14 10:18:45;;;;;;;3.63;1.23;;;25.20;99.90;27.50;94538.00;;;;7400434;19;20133;-82
2022/05/14 10:22:14;;;;;;;3.20;1.30;;;25.20;99.90;27.50;94568.00;;;;7403260;19;20145;-79
2022/05/14 10:28:22;;;;;;;4.65;1.52;;;25.70;99.90;27.00;94539.00;;;;7403959;19;20140;-80
2022/05/14 10:31:41;;;;;;;4.50;1.17;;;25.50;99.90;26.90;94487.00;;;;7402791;19;20168;-80
2022/05/14 10:34:21;;;;;;;2.53;1.30;;;25.50;99.90;26.80;94568.00;;;;7402259;19;20515;-80
2022/05/14 10:37:09;;;;;;;2.05;1.23;;;25.50;99.90;27.60;94450.00;;;;7401793;19;20129;-80
2022/05/14 10:40:01;;;;;;;3.15;1.40;;;25.90;99.90;27.50;94547.00;;;;7403099;19;20148;-80
2022/05/14 10:42:52;;;;;;;3.40;1.67;;;26.10;99.90;27.60;94549.00;;;;7402247;19;20145;-80
2022/05/14 10:45:43;;;;;;;2.58;1.30;;;26.30;99.90;26.70;94563.00;;;;7402130;19;20147;-79
2022/05/14 10:48:52;;;;;;;5.93;1.50;;;26.30;99.90;26.40;94555.00;;;;7402877;19;20156;-79
2022/05/14 10:51:25;;;;;;;5.00;1.58;;;26.20;99.90;26.50;94549.00;;;;7402445;19;20152;-80
2022/05/14 10:54:03;;;;;;;6.85;1.50;;;26.30;99.90;26.50;94526.00;;;;7403950;19;20139;-81
2022/05/14 10:57:20;;;;;;;3.58;1.65;;;26.40;99.90;26.80;94570.00;;;;7404053;19;20176;-79
2022/05/14 11:00:18;;;;;;;3.83;1.70;;;26.20;99.90;26.60;94479.00;;;;7406176;19;20152;-80
2022/05/14 11:03:09;;;;;;;4.80;2.10;;;25.90;99.90;27.30;94535.00;;;;7401798;19;20539;-81
2022/05/14 11:06:02;;;;;;;6.22;2.10;;;25.70;99.90;27.10;94559.00;;;;7402978;19;20161;-80
2022/05/14 11:08:41;;;;;;;3.15;1.70;;;25.60;99.90;26.90;94567.00;;;;7402498;19;20136;-79
2022/05/14 11:11:22;;;;;;;4.32;1.65;;;25.60;99.90;27.40;94569.00;;;;7403478;19;20219;-81
2022/05/14 11:14:08;;;;;;;2.97;1.67;;;25.60;99.90;27.40;94563.00;;;;7401180;19;20183;-81
2022/05/14 11:16:51;;;;;;;5.22;1.90;;;25.90;99.90;27.50;94515.00;;;;7403054;19;20152;-81
2022/05/14 11:19:33;;;;;;;4.45;1.55;;;26.20;99.90;28.20;94553.00;;;;7403362;19;20155;-81
2022/05/14 11:22:32;;;;;;;4.55;1.73;;;26.70;99.90;28.70;94493.00;;;;7403734;19;20628;-80
2022/05/14 11:25:26;;;;;;;3.03;1.50;;;27.00;99.90;29.30;94428.00;;;;7403300;19;20144;-82
2022/05/14 11:28:13;;;;;;;5.30;1.35;;;26.90;99.90;28.30;94561.00;;;;7401289;19;20156;-79
2022/05/14 11:31:09;;;;;;;3.30;1.60;;;27.20;99.90;28.50;94566.00;;;;7400163;19;20160;-80
2022/05/14 11:33:48;;;;;;;4.60;1.63;;;27.20;99.90;28.70;94569.00;;;;7401651;19;20163;-81
2022/05/14 11:36:31;;;;;;;5.40;1.70;;;27.30;99.90;28.70;94564.00;;;;7401527;19;20498;-81
2022/05/14 11:39:21;;;;;;;3.58;1.60;;;27.20;99.90;28.20;94562.00;;;;7401087;19;20152;-80
2022/05/14 11:42:06;;;;;;;2.97;1.60;;;27.00;99.90;28.40;94580.00;;;;7397899;19;20148;-80
2022/05/14 11:44:47;;;;;;;5.95;1.73;;;27.10;99.90;28.50;94552.00;;;;7403087;19;20136;-81
2022/05/14 11:48:03;;;;;;;3.67;1.70;;;27.10;99.90;28.20;94561.00;;;;7402942;19;20202;-80
2022/05/14 11:51:23;;;;;;;3.22;1.70;;;27.50;99.90;28.40;94558.00;;;;7399418;19;20160;-81
2022/05/14 11:54:16;;;;;;;4.97;1.73;;;27.60;99.90;28.60;94539.00;;;;7399298;19;20500;-80
2022/05/14 11:57:02;;;;;;;5.40;2.13;;;27.60;99.90;28.50;94563.00;;;;7402488;19;20188;-81
2022/05/14 11:59:58;;;;;;;3.10;1.70;;;27.40;99.90;27.50;94517.00;;;;7400517;19;20150;-82
2022/05/14 12:02:54;;;;;;;4.88;1.95;;;27.10;99.90;28.20;94548.00;;;;7401457;19;20152;-82
2022/05/14 12:05:38;;;;;;;2.75;1.50;;;27.10;99.90;28.20;94551.00;;;;7399375;19;20145;-82
2022/05/14 12:09:37;;;;;;;2.97;1.70;;;27.20;99.90;28.80;94536.00;;;;7399671;19;20139;-82
2022/05/14 12:12:59;;;;;;;6.10;1.80;;;27.50;99.90;28.90;94514.00;;;;7401216;19;20471;-82
2022/05/14 12:15:35;;;;;;;4.68;1.83;;;27.80;99.90;29.40;94522.00;;;;7398587;19;20156;-81
2022/05/14 12:18:03;;;;;;;3.33;1.63;;;27.90;99.90;29.50;94532.00;;;;7400227;19;20152;-82
2022/05/14 12:20:38;;;;;;;4.05;1.70;;;27.90;99.90;29.70;94528.00;;;;7401681;19;20133;-81